sensor_id;sensor_type;location;lat;lon;timestamp;P1;durP1;ratioP1;P2;durP2;ratioP2
10535;SDS011;5316;49.538;8.352;2024-01-30T00:00:22;26.73;;;20.90;;
10535;SDS011;5316;49.538;8.352;2024-01-30T00:02:49;26.43;;;19.97;;
10535;SDS011;5316;49.538;8.352;2024-01-30T00:05:15;28.43;;;19.97;;
10535;SDS011;5316;49.538;8.352;2024-01-30T00:07:42;25.13;;;20.33;;
10535;SDS011;5316;49.538;8.352;2024-01-30T00:10:09;24.67;;;18.87;;
10535;SDS011;5316;49.538;8.352;2024-01-30T00:12:36;26.23;;;20.30;;
10535;SDS011;5316;49.538;8.352;2024-01-30T00:15:04;25.60;;;20.47;;
10535;SDS011;5316;49.538;8.352;2024-01-30T00:17:34;28.70;;;19.83;;
10535;SDS011;5316;49.538;8.352;2024-01-30T00:20:01;25.30;;;19.67;;
10535;SDS011;5316;49.538;8.352;2024-01-30T00:22:30;25.37;;;19.47;;
10535;SDS011;5316;49.538;8.352;2024-01-30T00:24:57;24.53;;;20.23;;
10535;SDS011;5316;49.538;8.352;2024-01-30T00:27:23;24.67;;;18.57;;
10535;SDS011;5316;49.538;8.352;2024-01-30T00:29:51;25.53;;;19.00;;
10535;SDS011;5316;49.538;8.352;2024-01-30T00:32:19;24.33;;;18.40;;
10535;SDS011;5316;49.538;8.352;2024-01-30T00:34:47;23.97;;;18.60;;
10535;SDS011;5316;49.538;8.352;2024-01-30T00:37:14;23.70;;;17.90;;
10535;SDS011;5316;49.538;8.352;2024-01-30T00:39:41;23.97;;;18.33;;
10535;SDS011;5316;49.538;8.352;2024-01-30T00:42:08;25.47;;;18.70;;
10535;SDS011;5316;49.538;8.352;2024-01-30T00:44:35;22.30;;;17.93;;
10535;SDS011;5316;49.538;8.352;2024-01-30T00:47:03;24.30;;;18.37;;
10535;SDS011;5316;49.538;8.352;2024-01-30T00:49:31;26.73;;;17.70;;
10535;SDS011;5316;49.538;8.352;2024-01-30T00:51:58;23.80;;;16.77;;
10535;SDS011;5316;49.538;8.352;2024-01-30T00:54:25;23.40;;;16.50;;
10535;SDS011;5316;49.538;8.352;2024-01-30T00:56:52;21.20;;;15.50;;
10535;SDS011;5316;49.538;8.352;2024-01-30T00:59:19;20.67;;;15.43;;
10535;SDS011;5316;49.538;8.352;2024-01-30T01:01:46;23.50;;;16.33;;
10535;SDS011;5316;49.538;8.352;2024-01-30T01:04:12;19.90;;;15.43;;
10535;SDS011;5316;49.538;8.352;2024-01-30T01:06:40;21.47;;;15.33;;
10535;SDS011;5316;49.538;8.352;2024-01-30T01:09:09;24.37;;;15.83;;
10535;SDS011;5316;49.538;8.352;2024-01-30T01:11:36;21.20;;;15.70;;
10535;SDS011;5316;49.538;8.352;2024-01-30T01:14:03;20.30;;;15.37;;
10535;SDS011;5316;49.538;8.352;2024-01-30T01:16:30;22.47;;;16.37;;
10535;SDS011;5316;49.538;8.352;2024-01-30T01:18:57;18.60;;;15.83;;
10535;SDS011;5316;49.538;8.352;2024-01-30T01:21:25;23.37;;;16.93;;
10535;SDS011;5316;49.538;8.352;2024-01-30T01:23:53;21.13;;;16.30;;
10535;SDS011;5316;49.538;8.352;2024-01-30T01:26:20;23.47;;;17.83;;
10535;SDS011;5316;49.538;8.352;2024-01-30T01:28:47;23.63;;;18.00;;
10535;SDS011;5316;49.538;8.352;2024-01-30T01:31:14;22.37;;;18.30;;
10535;SDS011;5316;49.538;8.352;2024-01-30T01:33:42;23.53;;;17.70;;
10535;SDS011;5316;49.538;8.352;2024-01-30T01:36:09;22.67;;;17.43;;
10535;SDS011;5316;49.538;8.352;2024-01-30T01:38:36;23.83;;;18.30;;
10535;SDS011;5316;49.538;8.352;2024-01-30T01:41:04;25.13;;;17.93;;
10535;SDS011;5316;49.538;8.352;2024-01-30T01:43:30;20.73;;;17.20;;
10535;SDS011;5316;49.538;8.352;2024-01-30T01:45:57;22.20;;;16.13;;
10535;SDS011;5316;49.538;8.352;2024-01-30T01:48:24;19.03;;;15.17;;
10535;SDS011;5316;49.538;8.352;2024-01-30T01:50:51;18.43;;;15.43;;
10535;SDS011;5316;49.538;8.352;2024-01-30T01:53:18;19.70;;;15.73;;
10535;SDS011;5316;49.538;8.352;2024-01-30T01:55:45;20.20;;;16.10;;
10535;SDS011;5316;49.538;8.352;2024-01-30T01:58:14;20.63;;;16.87;;
10535;SDS011;5316;49.538;8.352;2024-01-30T02:00:41;28.20;;;19.73;;
10535;SDS011;5316;49.538;8.352;2024-01-30T02:03:09;26.60;;;18.90;;
10535;SDS011;5316;49.538;8.352;2024-01-30T02:05:37;21.10;;;17.63;;
10535;SDS011;5316;49.538;8.352;2024-01-30T02:08:05;22.37;;;17.63;;
10535;SDS011;5316;49.538;8.352;2024-01-30T02:10:33;20.53;;;16.60;;
10535;SDS011;5316;49.538;8.352;2024-01-30T02:13:00;25.27;;;20.10;;
10535;SDS011;5316;49.538;8.352;2024-01-30T02:15:28;21.70;;;17.93;;
10535;SDS011;5316;49.538;8.352;2024-01-30T02:17:55;23.73;;;17.97;;
10535;SDS011;5316;49.538;8.352;2024-01-30T02:20:21;23.27;;;17.43;;
10535;SDS011;5316;49.538;8.352;2024-01-30T02:22:52;22.90;;;18.00;;
10535;SDS011;5316;49.538;8.352;2024-01-30T02:25:20;22.60;;;17.97;;
10535;SDS011;5316;49.538;8.352;2024-01-30T02:27:55;20.50;;;16.37;;
10535;SDS011;5316;49.538;8.352;2024-01-30T02:30:22;19.93;;;16.67;;
10535;SDS011;5316;49.538;8.352;2024-01-30T02:32:49;21.40;;;16.73;;
10535;SDS011;5316;49.538;8.352;2024-01-30T02:35:15;22.77;;;16.50;;
10535;SDS011;5316;49.538;8.352;2024-01-30T02:37:42;23.83;;;17.43;;
10535;SDS011;5316;49.538;8.352;2024-01-30T02:40:10;21.37;;;16.70;;
10535;SDS011;5316;49.538;8.352;2024-01-30T02:42:37;17.97;;;15.50;;
10535;SDS011;5316;49.538;8.352;2024-01-30T02:45:04;20.40;;;15.37;;
10535;SDS011;5316;49.538;8.352;2024-01-30T02:47:31;18.97;;;14.33;;
10535;SDS011;5316;49.538;8.352;2024-01-30T02:49:58;18.23;;;15.10;;
10535;SDS011;5316;49.538;8.352;2024-01-30T02:52:24;18.23;;;14.93;;
10535;SDS011;5316;49.538;8.352;2024-01-30T02:54:51;21.20;;;15.30;;
10535;SDS011;5316;49.538;8.352;2024-01-30T02:57:19;22.63;;;15.93;;
10535;SDS011;5316;49.538;8.352;2024-01-30T02:59:46;18.97;;;14.67;;
10535;SDS011;5316;49.538;8.352;2024-01-30T03:02:12;21.07;;;15.53;;
10535;SDS011;5316;49.538;8.352;2024-01-30T03:04:40;20.70;;;15.70;;
10535;SDS011;5316;49.538;8.352;2024-01-30T03:07:07;20.60;;;15.37;;
10535;SDS011;5316;49.538;8.352;2024-01-30T03:09:34;18.73;;;15.40;;
10535;SDS011;5316;49.538;8.352;2024-01-30T03:12:01;21.70;;;15.53;;
10535;SDS011;5316;49.538;8.352;2024-01-30T03:14:30;17.87;;;14.57;;
10535;SDS011;5316;49.538;8.352;2024-01-30T03:16:57;20.03;;;15.10;;
10535;SDS011;5316;49.538;8.352;2024-01-30T03:19:24;17.70;;;14.23;;
10535;SDS011;5316;49.538;8.352;2024-01-30T03:21:50;19.73;;;14.87;;
10535;SDS011;5316;49.538;8.352;2024-01-30T03:24:17;15.47;;;12.93;;
10535;SDS011;5316;49.538;8.352;2024-01-30T03:26:44;17.63;;;14.20;;
10535;SDS011;5316;49.538;8.352;2024-01-30T03:29:11;17.17;;;13.20;;
10535;SDS011;5316;49.538;8.352;2024-01-30T03:31:39;16.13;;;12.87;;
10535;SDS011;5316;49.538;8.352;2024-01-30T03:34:06;16.43;;;12.93;;
10535;SDS011;5316;49.538;8.352;2024-01-30T03:36:33;15.47;;;12.43;;
10535;SDS011;5316;49.538;8.352;2024-01-30T03:38:59;16.43;;;12.47;;
10535;SDS011;5316;49.538;8.352;2024-01-30T03:41:26;16.30;;;13.40;;
10535;SDS011;5316;49.538;8.352;2024-01-30T03:43:53;17.27;;;13.17;;
10535;SDS011;5316;49.538;8.352;2024-01-30T03:46:20;17.43;;;13.53;;
10535;SDS011;5316;49.538;8.352;2024-01-30T03:48:48;15.93;;;12.67;;
10535;SDS011;5316;49.538;8.352;2024-01-30T03:51:14;14.73;;;12.53;;
10535;SDS011;5316;49.538;8.352;2024-01-30T03:53:41;17.03;;;12.40;;
10535;SDS011;5316;49.538;8.352;2024-01-30T03:56:08;15.47;;;13.30;;
10535;SDS011;5316;49.538;8.352;2024-01-30T03:58:35;20.20;;;13.57;;
10535;SDS011;5316;49.538;8.352;2024-01-30T04:01:02;16.07;;;12.50;;
10535;SDS011;5316;49.538;8.352;2024-01-30T04:03:29;17.00;;;13.07;;
10535;SDS011;5316;49.538;8.352;2024-01-30T04:05:57;16.73;;;12.80;;
10535;SDS011;5316;49.538;8.352;2024-01-30T04:08:23;16.27;;;12.40;;
10535;SDS011;5316;49.538;8.352;2024-01-30T04:10:50;16.33;;;12.87;;
10535;SDS011;5316;49.538;8.352;2024-01-30T04:13:17;14.60;;;12.37;;
10535;SDS011;5316;49.538;8.352;2024-01-30T04:15:43;15.73;;;12.13;;
10535;SDS011;5316;49.538;8.352;2024-01-30T04:18:10;17.67;;;13.10;;
10535;SDS011;5316;49.538;8.352;2024-01-30T04:20:37;17.80;;;13.13;;
10535;SDS011;5316;49.538;8.352;2024-01-30T04:23:05;15.27;;;12.40;;
10535;SDS011;5316;49.538;8.352;2024-01-30T04:25:31;15.97;;;12.40;;
10535;SDS011;5316;49.538;8.352;2024-01-30T04:27:58;16.87;;;12.93;;
10535;SDS011;5316;49.538;8.352;2024-01-30T04:30:25;13.97;;;12.07;;
10535;SDS011;5316;49.538;8.352;2024-01-30T04:32:51;18.60;;;12.70;;
10535;SDS011;5316;49.538;8.352;2024-01-30T04:35:18;19.40;;;12.97;;
10535;SDS011;5316;49.538;8.352;2024-01-30T04:37:48;14.37;;;12.83;;
10535;SDS011;5316;49.538;8.352;2024-01-30T04:40:16;17.53;;;12.57;;
10535;SDS011;5316;49.538;8.352;2024-01-30T04:42:43;17.73;;;14.50;;
10535;SDS011;5316;49.538;8.352;2024-01-30T04:45:10;17.43;;;13.70;;
10535;SDS011;5316;49.538;8.352;2024-01-30T04:47:37;16.00;;;12.77;;
10535;SDS011;5316;49.538;8.352;2024-01-30T04:50:05;18.00;;;13.13;;
10535;SDS011;5316;49.538;8.352;2024-01-30T04:52:33;19.37;;;12.50;;
10535;SDS011;5316;49.538;8.352;2024-01-30T04:55:00;16.83;;;12.60;;
10535;SDS011;5316;49.538;8.352;2024-01-30T04:57:28;142.53;;;29.60;;
10535;SDS011;5316;49.538;8.352;2024-01-30T04:59:56;40.30;;;19.40;;
10535;SDS011;5316;49.538;8.352;2024-01-30T05:02:22;22.23;;;14.00;;
10535;SDS011;5316;49.538;8.352;2024-01-30T05:04:48;22.37;;;13.90;;
10535;SDS011;5316;49.538;8.352;2024-01-30T05:07:15;21.50;;;13.43;;
10535;SDS011;5316;49.538;8.352;2024-01-30T05:09:41;19.17;;;13.93;;
10535;SDS011;5316;49.538;8.352;2024-01-30T05:12:08;20.43;;;14.27;;
10535;SDS011;5316;49.538;8.352;2024-01-30T05:14:36;20.07;;;14.03;;
10535;SDS011;5316;49.538;8.352;2024-01-30T05:17:03;18.87;;;12.90;;
10535;SDS011;5316;49.538;8.352;2024-01-30T05:19:30;16.77;;;12.07;;
10535;SDS011;5316;49.538;8.352;2024-01-30T05:21:56;16.37;;;12.20;;
10535;SDS011;5316;49.538;8.352;2024-01-30T05:24:23;15.50;;;11.47;;
10535;SDS011;5316;49.538;8.352;2024-01-30T05:26:50;13.00;;;10.60;;
10535;SDS011;5316;49.538;8.352;2024-01-30T05:29:17;17.00;;;11.07;;
10535;SDS011;5316;49.538;8.352;2024-01-30T05:31:45;13.03;;;10.67;;
10535;SDS011;5316;49.538;8.352;2024-01-30T05:34:12;19.97;;;13.17;;
10535;SDS011;5316;49.538;8.352;2024-01-30T05:36:38;15.17;;;10.53;;
10535;SDS011;5316;49.538;8.352;2024-01-30T05:39:05;13.37;;;10.30;;
10535;SDS011;5316;49.538;8.352;2024-01-30T05:41:32;14.10;;;10.13;;
10535;SDS011;5316;49.538;8.352;2024-01-30T05:43:59;13.77;;;9.50;;
10535;SDS011;5316;49.538;8.352;2024-01-30T05:46:25;15.00;;;11.17;;
10535;SDS011;5316;49.538;8.352;2024-01-30T05:48:53;14.40;;;10.80;;
10535;SDS011;5316;49.538;8.352;2024-01-30T05:51:20;12.43;;;10.73;;
10535;SDS011;5316;49.538;8.352;2024-01-30T05:53:47;12.80;;;10.60;;
10535;SDS011;5316;49.538;8.352;2024-01-30T05:56:14;12.73;;;10.10;;
10535;SDS011;5316;49.538;8.352;2024-01-30T05:58:41;12.73;;;9.90;;
10535;SDS011;5316;49.538;8.352;2024-01-30T06:01:08;12.23;;;10.53;;
10535;SDS011;5316;49.538;8.352;2024-01-30T06:03:35;13.20;;;10.47;;
10535;SDS011;5316;49.538;8.352;2024-01-30T06:06:03;15.73;;;12.80;;
10535;SDS011;5316;49.538;8.352;2024-01-30T06:08:30;12.80;;;10.93;;
10535;SDS011;5316;49.538;8.352;2024-01-30T06:10:57;16.33;;;10.53;;
10535;SDS011;5316;49.538;8.352;2024-01-30T06:13:23;11.67;;;9.50;;
10535;SDS011;5316;49.538;8.352;2024-01-30T06:15:50;13.87;;;10.97;;
10535;SDS011;5316;49.538;8.352;2024-01-30T06:18:17;12.73;;;10.07;;
10535;SDS011;5316;49.538;8.352;2024-01-30T06:20:44;13.60;;;10.03;;
10535;SDS011;5316;49.538;8.352;2024-01-30T06:23:12;14.30;;;10.80;;
10535;SDS011;5316;49.538;8.352;2024-01-30T06:25:39;12.43;;;10.83;;
10535;SDS011;5316;49.538;8.352;2024-01-30T06:28:08;13.33;;;10.80;;
10535;SDS011;5316;49.538;8.352;2024-01-30T06:30:35;12.80;;;10.87;;
10535;SDS011;5316;49.538;8.352;2024-01-30T06:33:02;13.27;;;10.60;;
10535;SDS011;5316;49.538;8.352;2024-01-30T06:35:30;12.57;;;9.93;;
10535;SDS011;5316;49.538;8.352;2024-01-30T06:37:56;13.07;;;10.90;;
10535;SDS011;5316;49.538;8.352;2024-01-30T06:40:25;29.13;;;18.93;;
10535;SDS011;5316;49.538;8.352;2024-01-30T06:42:52;15.33;;;12.07;;
10535;SDS011;5316;49.538;8.352;2024-01-30T06:45:18;14.87;;;11.07;;
10535;SDS011;5316;49.538;8.352;2024-01-30T06:47:45;14.90;;;10.90;;
10535;SDS011;5316;49.538;8.352;2024-01-30T06:50:12;13.83;;;11.90;;
10535;SDS011;5316;49.538;8.352;2024-01-30T06:52:39;15.37;;;11.77;;
10535;SDS011;5316;49.538;8.352;2024-01-30T06:55:05;15.27;;;11.03;;
10535;SDS011;5316;49.538;8.352;2024-01-30T06:57:34;14.27;;;11.97;;
10535;SDS011;5316;49.538;8.352;2024-01-30T07:00:00;16.63;;;11.17;;
10535;SDS011;5316;49.538;8.352;2024-01-30T07:02:27;14.23;;;11.60;;
10535;SDS011;5316;49.538;8.352;2024-01-30T07:04:54;15.73;;;12.10;;
10535;SDS011;5316;49.538;8.352;2024-01-30T07:07:21;16.70;;;12.43;;
10535;SDS011;5316;49.538;8.352;2024-01-30T07:09:47;14.57;;;11.60;;
10535;SDS011;5316;49.538;8.352;2024-01-30T07:12:17;15.50;;;11.70;;
10535;SDS011;5316;49.538;8.352;2024-01-30T07:14:45;17.97;;;11.73;;
10535;SDS011;5316;49.538;8.352;2024-01-30T07:17:12;14.83;;;11.63;;
10535;SDS011;5316;49.538;8.352;2024-01-30T07:19:39;15.23;;;11.70;;
10535;SDS011;5316;49.538;8.352;2024-01-30T07:22:06;16.77;;;11.70;;
10535;SDS011;5316;49.538;8.352;2024-01-30T07:24:33;13.73;;;11.10;;
10535;SDS011;5316;49.538;8.352;2024-01-30T07:27:00;16.97;;;11.47;;
10535;SDS011;5316;49.538;8.352;2024-01-30T07:29:27;15.70;;;11.20;;
10535;SDS011;5316;49.538;8.352;2024-01-30T07:31:55;15.10;;;11.20;;
10535;SDS011;5316;49.538;8.352;2024-01-30T07:34:21;12.87;;;10.87;;
10535;SDS011;5316;49.538;8.352;2024-01-30T07:36:48;13.87;;;11.50;;
10535;SDS011;5316;49.538;8.352;2024-01-30T07:39:15;13.83;;;11.47;;
10535;SDS011;5316;49.538;8.352;2024-01-30T07:41:41;17.70;;;11.37;;
10535;SDS011;5316;49.538;8.352;2024-01-30T07:44:09;14.60;;;10.93;;
10535;SDS011;5316;49.538;8.352;2024-01-30T07:46:35;14.50;;;11.43;;
10535;SDS011;5316;49.538;8.352;2024-01-30T07:49:03;14.27;;;11.20;;
10535;SDS011;5316;49.538;8.352;2024-01-30T07:51:30;14.93;;;11.07;;
10535;SDS011;5316;49.538;8.352;2024-01-30T07:53:58;12.60;;;10.57;;
10535;SDS011;5316;49.538;8.352;2024-01-30T07:56:24;14.53;;;11.50;;
10535;SDS011;5316;49.538;8.352;2024-01-30T07:58:52;13.43;;;10.80;;
10535;SDS011;5316;49.538;8.352;2024-01-30T08:01:19;14.57;;;11.13;;
10535;SDS011;5316;49.538;8.352;2024-01-30T08:03:45;16.10;;;11.33;;
10535;SDS011;5316;49.538;8.352;2024-01-30T08:06:13;14.17;;;11.27;;
10535;SDS011;5316;49.538;8.352;2024-01-30T08:08:40;13.30;;;10.87;;
10535;SDS011;5316;49.538;8.352;2024-01-30T08:11:07;14.80;;;11.67;;
10535;SDS011;5316;49.538;8.352;2024-01-30T08:13:34;17.13;;;12.00;;
10535;SDS011;5316;49.538;8.352;2024-01-30T08:16:00;14.37;;;11.43;;
10535;SDS011;5316;49.538;8.352;2024-01-30T08:18:27;14.33;;;11.40;;
10535;SDS011;5316;49.538;8.352;2024-01-30T08:20:54;14.73;;;11.73;;
10535;SDS011;5316;49.538;8.352;2024-01-30T08:23:22;13.73;;;11.27;;
10535;SDS011;5316;49.538;8.352;2024-01-30T08:25:48;12.97;;;10.50;;
10535;SDS011;5316;49.538;8.352;2024-01-30T08:28:15;13.17;;;11.10;;
10535;SDS011;5316;49.538;8.352;2024-01-30T08:30:42;14.17;;;11.43;;
10535;SDS011;5316;49.538;8.352;2024-01-30T08:33:08;14.17;;;11.03;;
10535;SDS011;5316;49.538;8.352;2024-01-30T08:35:35;15.30;;;11.83;;
10535;SDS011;5316;49.538;8.352;2024-01-30T08:38:03;15.63;;;11.47;;
10535;SDS011;5316;49.538;8.352;2024-01-30T08:40:31;16.37;;;12.13;;
10535;SDS011;5316;49.538;8.352;2024-01-30T08:42:58;17.17;;;12.30;;
10535;SDS011;5316;49.538;8.352;2024-01-30T08:45:24;16.50;;;12.67;;
10535;SDS011;5316;49.538;8.352;2024-01-30T08:47:51;15.57;;;13.37;;
10535;SDS011;5316;49.538;8.352;2024-01-30T08:50:18;14.70;;;11.73;;
10535;SDS011;5316;49.538;8.352;2024-01-30T08:52:44;15.33;;;12.63;;
10535;SDS011;5316;49.538;8.352;2024-01-30T08:55:11;17.40;;;12.70;;
10535;SDS011;5316;49.538;8.352;2024-01-30T08:57:39;15.57;;;11.83;;
10535;SDS011;5316;49.538;8.352;2024-01-30T09:00:06;15.43;;;11.93;;
10535;SDS011;5316;49.538;8.352;2024-01-30T09:02:35;18.73;;;12.60;;
10535;SDS011;5316;49.538;8.352;2024-01-30T09:05:02;13.77;;;11.60;;
10535;SDS011;5316;49.538;8.352;2024-01-30T09:07:29;14.50;;;12.17;;
10535;SDS011;5316;49.538;8.352;2024-01-30T09:09:55;16.60;;;12.60;;
10535;SDS011;5316;49.538;8.352;2024-01-30T09:12:22;19.27;;;12.40;;
10535;SDS011;5316;49.538;8.352;2024-01-30T09:14:50;18.17;;;12.40;;
10535;SDS011;5316;49.538;8.352;2024-01-30T09:17:17;14.70;;;11.90;;
10535;SDS011;5316;49.538;8.352;2024-01-30T09:19:45;15.87;;;12.23;;
10535;SDS011;5316;49.538;8.352;2024-01-30T09:22:12;14.47;;;12.00;;
10535;SDS011;5316;49.538;8.352;2024-01-30T09:24:42;15.23;;;12.87;;
10535;SDS011;5316;49.538;8.352;2024-01-30T09:27:11;15.57;;;11.70;;
10535;SDS011;5316;49.538;8.352;2024-01-30T09:29:38;14.53;;;11.83;;
10535;SDS011;5316;49.538;8.352;2024-01-30T09:32:06;14.40;;;11.30;;
10535;SDS011;5316;49.538;8.352;2024-01-30T09:34:34;13.63;;;11.57;;
10535;SDS011;5316;49.538;8.352;2024-01-30T09:37:00;14.37;;;11.90;;
10535;SDS011;5316;49.538;8.352;2024-01-30T09:39:27;15.20;;;12.10;;
10535;SDS011;5316;49.538;8.352;2024-01-30T09:41:55;14.80;;;12.23;;
10535;SDS011;5316;49.538;8.352;2024-01-30T09:44:28;16.13;;;12.27;;
10535;SDS011;5316;49.538;8.352;2024-01-30T09:46:55;13.60;;;12.13;;
10535;SDS011;5316;49.538;8.352;2024-01-30T09:49:25;16.03;;;11.77;;
10535;SDS011;5316;49.538;8.352;2024-01-30T09:51:52;15.33;;;12.07;;
10535;SDS011;5316;49.538;8.352;2024-01-30T09:54:20;14.27;;;11.83;;
10535;SDS011;5316;49.538;8.352;2024-01-30T09:56:48;13.23;;;11.27;;
10535;SDS011;5316;49.538;8.352;2024-01-30T09:59:14;14.90;;;11.83;;
10535;SDS011;5316;49.538;8.352;2024-01-30T10:01:41;17.23;;;12.80;;
10535;SDS011;5316;49.538;8.352;2024-01-30T10:04:09;20.37;;;13.93;;
10535;SDS011;5316;49.538;8.352;2024-01-30T10:06:37;14.53;;;11.97;;
10535;SDS011;5316;49.538;8.352;2024-01-30T10:09:06;15.77;;;11.13;;
10535;SDS011;5316;49.538;8.352;2024-01-30T10:11:33;16.03;;;11.90;;
10535;SDS011;5316;49.538;8.352;2024-01-30T10:14:00;14.77;;;11.07;;
10535;SDS011;5316;49.538;8.352;2024-01-30T10:16:27;14.60;;;11.47;;
10535;SDS011;5316;49.538;8.352;2024-01-30T10:18:54;26.53;;;18.00;;
10535;SDS011;5316;49.538;8.352;2024-01-30T10:21:21;19.43;;;13.93;;
10535;SDS011;5316;49.538;8.352;2024-01-30T10:23:49;15.03;;;12.20;;
10535;SDS011;5316;49.538;8.352;2024-01-30T10:26:16;13.80;;;11.47;;
10535;SDS011;5316;49.538;8.352;2024-01-30T10:28:43;15.77;;;11.97;;
10535;SDS011;5316;49.538;8.352;2024-01-30T10:31:10;15.50;;;11.80;;
10535;SDS011;5316;49.538;8.352;2024-01-30T10:33:36;13.60;;;11.73;;
10535;SDS011;5316;49.538;8.352;2024-01-30T10:36:04;15.77;;;11.37;;
10535;SDS011;5316;49.538;8.352;2024-01-30T10:38:31;17.70;;;13.30;;
10535;SDS011;5316;49.538;8.352;2024-01-30T10:41:00;16.27;;;13.20;;
10535;SDS011;5316;49.538;8.352;2024-01-30T10:43:30;15.37;;;11.50;;
10535;SDS011;5316;49.538;8.352;2024-01-30T10:46:04;15.23;;;11.37;;
10535;SDS011;5316;49.538;8.352;2024-01-30T10:48:39;16.10;;;12.47;;
10535;SDS011;5316;49.538;8.352;2024-01-30T10:51:09;12.67;;;10.80;;
10535;SDS011;5316;49.538;8.352;2024-01-30T10:53:37;12.63;;;10.87;;
10535;SDS011;5316;49.538;8.352;2024-01-30T10:56:06;13.57;;;11.00;;
10535;SDS011;5316;49.538;8.352;2024-01-30T10:58:36;14.00;;;11.20;;
10535;SDS011;5316;49.538;8.352;2024-01-30T11:01:03;11.93;;;10.73;;
10535;SDS011;5316;49.538;8.352;2024-01-30T11:03:30;13.27;;;10.87;;
10535;SDS011;5316;49.538;8.352;2024-01-30T11:05:59;12.77;;;10.73;;
10535;SDS011;5316;49.538;8.352;2024-01-30T11:08:26;14.97;;;11.23;;
10535;SDS011;5316;49.538;8.352;2024-01-30T11:10:55;13.17;;;11.10;;
10535;SDS011;5316;49.538;8.352;2024-01-30T11:13:24;14.00;;;10.80;;
10535;SDS011;5316;49.538;8.352;2024-01-30T11:15:53;15.10;;;11.23;;
10535;SDS011;5316;49.538;8.352;2024-01-30T11:18:23;13.67;;;11.80;;
10535;SDS011;5316;49.538;8.352;2024-01-30T11:20:50;14.23;;;11.37;;
10535;SDS011;5316;49.538;8.352;2024-01-30T11:23:17;14.70;;;10.63;;
10535;SDS011;5316;49.538;8.352;2024-01-30T11:25:44;14.37;;;11.17;;
10535;SDS011;5316;49.538;8.352;2024-01-30T11:28:12;14.17;;;11.97;;
10535;SDS011;5316;49.538;8.352;2024-01-30T11:30:41;13.57;;;11.33;;
10535;SDS011;5316;49.538;8.352;2024-01-30T11:33:09;13.23;;;11.60;;
10535;SDS011;5316;49.538;8.352;2024-01-30T11:35:37;15.30;;;10.53;;
10535;SDS011;5316;49.538;8.352;2024-01-30T11:38:05;12.97;;;10.67;;
10535;SDS011;5316;49.538;8.352;2024-01-30T11:40:33;16.07;;;11.53;;
10535;SDS011;5316;49.538;8.352;2024-01-30T11:43:01;12.90;;;11.00;;
10535;SDS011;5316;49.538;8.352;2024-01-30T11:45:29;12.43;;;10.93;;
10535;SDS011;5316;49.538;8.352;2024-01-30T11:47:58;11.23;;;10.13;;
10535;SDS011;5316;49.538;8.352;2024-01-30T11:50:26;13.13;;;9.97;;
10535;SDS011;5316;49.538;8.352;2024-01-30T11:52:53;14.83;;;11.10;;
10535;SDS011;5316;49.538;8.352;2024-01-30T11:55:21;12.43;;;10.37;;
10535;SDS011;5316;49.538;8.352;2024-01-30T11:57:47;12.33;;;10.67;;
10535;SDS011;5316;49.538;8.352;2024-01-30T12:00:14;13.47;;;11.10;;
10535;SDS011;5316;49.538;8.352;2024-01-30T12:02:42;16.53;;;11.27;;
10535;SDS011;5316;49.538;8.352;2024-01-30T12:05:10;13.10;;;11.13;;
10535;SDS011;5316;49.538;8.352;2024-01-30T12:07:37;13.70;;;10.60;;
10535;SDS011;5316;49.538;8.352;2024-01-30T12:10:03;13.67;;;10.80;;
10535;SDS011;5316;49.538;8.352;2024-01-30T12:12:32;13.17;;;10.27;;
10535;SDS011;5316;49.538;8.352;2024-01-30T12:14:59;13.37;;;10.27;;
10535;SDS011;5316;49.538;8.352;2024-01-30T12:17:28;12.63;;;9.47;;
10535;SDS011;5316;49.538;8.352;2024-01-30T12:20:02;12.27;;;10.30;;
10535;SDS011;5316;49.538;8.352;2024-01-30T12:22:32;11.27;;;10.13;;
10535;SDS011;5316;49.538;8.352;2024-01-30T12:25:02;12.23;;;10.33;;
10535;SDS011;5316;49.538;8.352;2024-01-30T12:27:29;12.37;;;10.37;;
10535;SDS011;5316;49.538;8.352;2024-01-30T12:29:56;14.53;;;10.93;;
10535;SDS011;5316;49.538;8.352;2024-01-30T12:32:23;13.80;;;11.23;;
10535;SDS011;5316;49.538;8.352;2024-01-30T12:34:49;14.47;;;10.13;;
10535;SDS011;5316;49.538;8.352;2024-01-30T12:37:16;11.20;;;9.60;;
10535;SDS011;5316;49.538;8.352;2024-01-30T12:39:48;10.60;;;8.87;;
10535;SDS011;5316;49.538;8.352;2024-01-30T12:42:15;12.37;;;9.07;;
10535;SDS011;5316;49.538;8.352;2024-01-30T12:44:42;10.80;;;8.83;;
10535;SDS011;5316;49.538;8.352;2024-01-30T12:47:09;10.43;;;8.73;;
10535;SDS011;5316;49.538;8.352;2024-01-30T12:49:35;13.33;;;9.50;;
10535;SDS011;5316;49.538;8.352;2024-01-30T12:52:02;12.43;;;8.27;;
10535;SDS011;5316;49.538;8.352;2024-01-30T12:54:29;10.10;;;8.50;;
10535;SDS011;5316;49.538;8.352;2024-01-30T12:56:58;40.73;;;28.90;;
10535;SDS011;5316;49.538;8.352;2024-01-30T12:59:25;16.70;;;11.90;;
10535;SDS011;5316;49.538;8.352;2024-01-30T13:01:51;12.80;;;9.37;;
10535;SDS011;5316;49.538;8.352;2024-01-30T13:04:18;9.17;;;8.23;;
10535;SDS011;5316;49.538;8.352;2024-01-30T13:06:45;9.87;;;8.53;;
10535;SDS011;5316;49.538;8.352;2024-01-30T13:09:11;8.87;;;7.63;;
10535;SDS011;5316;49.538;8.352;2024-01-30T13:11:38;8.77;;;7.40;;
10535;SDS011;5316;49.538;8.352;2024-01-30T13:14:06;7.77;;;6.83;;
10535;SDS011;5316;49.538;8.352;2024-01-30T13:16:33;7.40;;;6.70;;
10535;SDS011;5316;49.538;8.352;2024-01-30T13:19:00;8.67;;;7.27;;
10535;SDS011;5316;49.538;8.352;2024-01-30T13:21:27;9.30;;;7.23;;
10535;SDS011;5316;49.538;8.352;2024-01-30T13:23:54;7.63;;;6.83;;
10535;SDS011;5316;49.538;8.352;2024-01-30T13:26:20;7.77;;;6.70;;
10535;SDS011;5316;49.538;8.352;2024-01-30T13:28:47;8.87;;;7.03;;
10535;SDS011;5316;49.538;8.352;2024-01-30T13:31:16;18.77;;;12.90;;
10535;SDS011;5316;49.538;8.352;2024-01-30T13:33:44;8.40;;;7.00;;
10535;SDS011;5316;49.538;8.352;2024-01-30T13:36:11;7.90;;;6.70;;
10535;SDS011;5316;49.538;8.352;2024-01-30T13:38:38;7.60;;;6.40;;
10535;SDS011;5316;49.538;8.352;2024-01-30T13:41:05;9.67;;;6.60;;
10535;SDS011;5316;49.538;8.352;2024-01-30T13:43:32;6.70;;;5.70;;
10535;SDS011;5316;49.538;8.352;2024-01-30T13:45:58;7.13;;;6.33;;
10535;SDS011;5316;49.538;8.352;2024-01-30T13:48:27;8.13;;;5.77;;
10535;SDS011;5316;49.538;8.352;2024-01-30T13:50:54;6.33;;;5.73;;
10535;SDS011;5316;49.538;8.352;2024-01-30T13:53:21;6.43;;;5.77;;
10535;SDS011;5316;49.538;8.352;2024-01-30T13:55:48;6.57;;;5.97;;
10535;SDS011;5316;49.538;8.352;2024-01-30T13:58:15;6.93;;;5.80;;
10535;SDS011;5316;49.538;8.352;2024-01-30T14:00:41;6.57;;;5.97;;
10535;SDS011;5316;49.538;8.352;2024-01-30T14:03:08;7.80;;;5.43;;
10535;SDS011;5316;49.538;8.352;2024-01-30T14:05:36;8.70;;;5.70;;
10535;SDS011;5316;49.538;8.352;2024-01-30T14:08:03;8.23;;;5.37;;
10535;SDS011;5316;49.538;8.352;2024-01-30T14:10:30;11.73;;;5.80;;
10535;SDS011;5316;49.538;8.352;2024-01-30T14:12:57;6.23;;;5.23;;
10535;SDS011;5316;49.538;8.352;2024-01-30T14:15:23;6.10;;;5.50;;
10535;SDS011;5316;49.538;8.352;2024-01-30T14:17:50;5.63;;;5.13;;
10535;SDS011;5316;49.538;8.352;2024-01-30T14:20:17;6.77;;;5.17;;
10535;SDS011;5316;49.538;8.352;2024-01-30T14:22:45;7.83;;;5.00;;
10535;SDS011;5316;49.538;8.352;2024-01-30T14:25:12;6.73;;;5.30;;
10535;SDS011;5316;49.538;8.352;2024-01-30T14:27:39;7.93;;;5.30;;
10535;SDS011;5316;49.538;8.352;2024-01-30T14:30:06;7.03;;;5.10;;
10535;SDS011;5316;49.538;8.352;2024-01-30T14:32:37;7.20;;;5.37;;
10535;SDS011;5316;49.538;8.352;2024-01-30T14:35:05;13.63;;;6.47;;
10535;SDS011;5316;49.538;8.352;2024-01-30T14:37:33;8.20;;;5.50;;